createdAt,value
2018-07-05T00:00:15.448Z,0
2018-07-05T00:01:17.063Z,0
2018-07-05T00:02:18.686Z,0
2018-07-05T00:03:20.296Z,0
2018-07-05T00:04:21.914Z,0
2018-07-05T00:05:23.539Z,0
2018-07-05T00:06:25.153Z,0
2018-07-05T00:07:26.774Z,0
2018-07-05T00:08:28.395Z,0
2018-07-05T00:09:30.008Z,0
2018-07-05T00:10:31.631Z,0
2018-07-05T00:11:33.243Z,0
2018-07-05T00:12:34.867Z,0
2018-07-05T00:13:36.482Z,0
2018-07-05T00:14:38.103Z,0
2018-07-05T00:15:39.722Z,0
2018-07-05T00:16:41.334Z,0
2018-07-05T00:17:42.950Z,0
2018-07-05T00:18:44.564Z,0
2018-07-05T00:19:46.187Z,0
2018-07-05T00:20:47.805Z,0
2018-07-05T00:21:50.285Z,0
2018-07-05T00:22:51.904Z,0
2018-07-05T00:23:53.518Z,0
2018-07-05T00:24:55.137Z,0
2018-07-05T00:25:56.751Z,0
2018-07-05T00:26:59.118Z,0
2018-07-05T00:28:00.740Z,0
2018-07-05T00:29:02.356Z,0
2018-07-05T00:30:03.971Z,0
2018-07-05T00:31:05.586Z,0
2018-07-05T00:32:07.206Z,0
2018-07-05T00:33:08.821Z,0
2018-07-05T00:34:10.438Z,0
2018-07-05T00:35:12.112Z,0
2018-07-05T00:36:13.723Z,0
2018-07-05T00:37:15.344Z,0
2018-07-05T00:38:16.956Z,0
2018-07-05T00:39:18.571Z,0
2018-07-05T00:40:20.192Z,0
2018-07-05T00:41:21.831Z,0
2018-07-05T00:42:23.451Z,0
2018-07-05T00:43:25.072Z,0
2018-07-05T00:44:26.683Z,0
2018-07-05T00:45:28.305Z,0
2018-07-05T00:46:29.917Z,0
2018-07-05T00:47:31.540Z,0
2018-07-05T00:48:33.160Z,0
2018-07-05T00:49:34.776Z,0
2018-07-05T00:50:36.398Z,0
2018-07-05T00:51:38.013Z,0
2018-07-05T00:52:39.635Z,0
2018-07-05T00:53:41.251Z,0
2018-07-05T00:54:42.873Z,0
2018-07-05T00:55:44.488Z,0
2018-07-05T00:56:46.114Z,0
2018-07-05T00:57:47.730Z,0
2018-07-05T00:58:49.344Z,0
2018-07-05T00:59:50.964Z,0
2018-07-05T01:00:52.579Z,0
2018-07-05T01:01:54.204Z,0
2018-07-05T01:02:55.826Z,0
2018-07-05T01:03:57.439Z,0
2018-07-05T01:04:59.061Z,0
2018-07-05T01:06:00.684Z,0
2018-07-05T01:07:02.292Z,0
2018-07-05T01:08:03.910Z,0
2018-07-05T01:09:05.527Z,0
2018-07-05T01:10:07.151Z,0
2018-07-05T01:11:08.765Z,0
2018-07-05T01:12:10.382Z,0
2018-07-05T01:13:12.003Z,0
2018-07-05T01:14:13.616Z,0
2018-07-05T01:15:15.236Z,0
2018-07-05T01:16:16.857Z,0
2018-07-05T01:17:18.474Z,0
2018-07-05T01:19:21.546Z,0
2018-07-05T01:20:23.172Z,0
2018-07-05T01:21:24.783Z,0
2018-07-05T01:22:26.407Z,0
2018-07-05T01:23:28.020Z,0
2018-07-05T01:24:30.273Z,0
2018-07-05T01:25:31.887Z,0
2018-07-05T01:26:33.501Z,0
2018-07-05T01:27:35.117Z,0
2018-07-05T01:28:36.737Z,0
2018-07-05T01:29:38.357Z,0
2018-07-05T01:30:39.980Z,0
2018-07-05T01:31:41.593Z,0
2018-07-05T01:32:43.210Z,0
2018-07-05T01:33:44.825Z,0
2018-07-05T01:34:46.445Z,0
2018-07-05T01:35:48.059Z,0
2018-07-05T01:36:49.682Z,0
2018-07-05T01:37:51.297Z,0
2018-07-05T01:38:52.917Z,0
2018-07-05T01:39:54.534Z,0
2018-07-05T01:40:56.154Z,0
2018-07-05T01:41:57.770Z,0
2018-07-05T01:42:59.385Z,0
2018-07-05T01:44:01.005Z,0
2018-07-05T01:45:02.623Z,0
2018-07-05T01:46:04.242Z,0
2018-07-05T01:47:05.861Z,0
2018-07-05T01:48:07.478Z,0
2018-07-05T01:49:09.094Z,0
2018-07-05T01:50:10.714Z,0
2018-07-05T01:51:12.334Z,0
2018-07-05T01:52:13.949Z,0
2018-07-05T01:53:15.564Z,0
2018-07-05T01:54:17.186Z,0
2018-07-05T01:55:18.807Z,0
2018-07-05T01:56:20.424Z,0
2018-07-05T01:57:22.038Z,0
2018-07-05T01:58:23.661Z,0
2018-07-05T01:59:25.296Z,0
2018-07-05T02:00:26.901Z,0
2018-07-05T02:01:28.517Z,0
2018-07-05T02:02:30.130Z,0
2018-07-05T02:03:31.747Z,0
2018-07-05T02:04:33.370Z,0
2018-07-05T02:05:34.987Z,0
2018-07-05T02:06:36.602Z,0
2018-07-05T02:07:38.219Z,0
2018-07-05T02:08:39.844Z,0
2018-07-05T02:09:41.461Z,0
2018-07-05T02:10:43.076Z,0
2018-07-05T02:11:44.689Z,0
2018-07-05T02:12:46.312Z,0
2018-07-05T02:13:47.932Z,0
2018-07-05T02:14:49.549Z,0
2018-07-05T02:15:51.176Z,0
2018-07-05T02:16:52.796Z,0
2018-07-05T02:17:54.416Z,0
2018-07-05T02:18:56.030Z,0
2018-07-05T02:19:57.646Z,0
2018-07-05T02:20:59.271Z,0
2018-07-05T02:22:00.883Z,0
2018-07-05T02:23:03.274Z,0
2018-07-05T02:24:04.895Z,0
2018-07-05T02:25:06.508Z,0
2018-07-05T02:26:08.128Z,0
2018-07-05T02:27:10.698Z,0
2018-07-05T02:28:12.320Z,0
2018-07-05T02:29:13.938Z,0
2018-07-05T02:30:15.564Z,0
2018-07-05T02:31:17.174Z,0
2018-07-05T02:32:18.793Z,0
2018-07-05T02:33:20.432Z,0
2018-07-05T02:34:22.046Z,0
2018-07-05T02:35:23.669Z,0
2018-07-05T02:36:25.289Z,4
2018-07-05T02:37:26.914Z,4
2018-07-05T02:38:29.056Z,0
2018-07-05T02:39:30.669Z,0
2018-07-05T02:40:32.288Z,0
2018-07-05T02:41:33.902Z,4
2018-07-05T02:42:35.525Z,4
2018-07-05T02:43:37.149Z,0
2018-07-05T02:44:38.759Z,4
2018-07-05T02:45:40.371Z,4
2018-07-05T02:46:41.992Z,4
2018-07-05T02:47:43.605Z,4
2018-07-05T02:48:45.223Z,8
2018-07-05T02:49:46.839Z,4
2018-07-05T02:50:48.457Z,8
2018-07-05T02:51:50.076Z,8
2018-07-05T02:52:52.643Z,8
2018-07-05T02:53:54.248Z,12
2018-07-05T02:54:55.865Z,12
2018-07-05T02:55:57.489Z,12
2018-07-05T02:56:59.107Z,12
2018-07-05T02:58:00.726Z,16
2018-07-05T02:59:02.343Z,20
2018-07-05T03:00:03.965Z,20
2018-07-05T03:01:05.588Z,20
2018-07-05T03:02:07.206Z,24
2018-07-05T03:03:08.821Z,28
2018-07-05T03:04:10.443Z,28
2018-07-05T03:05:12.057Z,36
2018-07-05T03:06:14.360Z,40
2018-07-05T03:07:15.982Z,40
2018-07-05T03:08:17.603Z,44
2018-07-05T03:09:19.221Z,48
2018-07-05T03:10:20.836Z,56
2018-07-05T03:11:23.068Z,60
2018-07-05T03:12:24.689Z,68
2018-07-05T03:13:26.312Z,72
2018-07-05T03:14:27.931Z,76
2018-07-05T03:15:29.550Z,88
2018-07-05T03:16:31.166Z,92
2018-07-05T03:17:32.784Z,104
2018-07-05T03:18:34.438Z,112
2018-07-05T03:19:36.061Z,124
2018-07-05T03:20:37.680Z,132
2018-07-05T03:21:39.297Z,144
2018-07-05T03:22:40.919Z,156
2018-07-05T03:23:42.537Z,164
2018-07-05T03:24:44.161Z,180
2018-07-05T03:25:45.777Z,196
2018-07-05T03:26:47.402Z,212
2018-07-05T03:27:49.018Z,224
2018-07-05T03:28:50.643Z,244
2018-07-05T03:29:52.258Z,256
2018-07-05T03:30:53.883Z,276
2018-07-05T03:31:55.499Z,292
2018-07-05T03:32:57.123Z,304
2018-07-05T03:33:58.746Z,320
2018-07-05T03:35:00.370Z,332
2018-07-05T03:36:02.516Z,352
2018-07-05T03:37:04.137Z,364
2018-07-05T03:38:05.757Z,380
2018-07-05T03:39:07.377Z,396
2018-07-05T03:40:08.998Z,416
2018-07-05T03:41:10.618Z,436
2018-07-05T03:42:12.245Z,448
2018-07-05T03:43:13.857Z,468
2018-07-05T03:44:15.482Z,488
2018-07-05T03:45:17.104Z,500
2018-07-05T03:46:18.728Z,516
2018-07-05T03:47:20.355Z,536
2018-07-05T03:48:21.977Z,560
2018-07-05T03:49:23.595Z,588
2018-07-05T03:50:25.215Z,620
2018-07-05T03:51:26.861Z,652
2018-07-05T03:52:28.456Z,680
2018-07-05T03:53:30.078Z,716
2018-07-05T03:54:31.702Z,752
2018-07-05T03:55:33.318Z,788
2018-07-05T03:56:34.967Z,824
2018-07-05T03:57:36.559Z,868
2018-07-05T03:58:38.175Z,904
2018-07-05T03:59:39.802Z,948
2018-07-05T04:00:41.418Z,976
2018-07-05T04:01:43.038Z,1004
2018-07-05T04:02:44.705Z,1024
2018-07-05T04:03:46.287Z,1048
2018-07-05T04:04:47.909Z,1076
2018-07-05T04:05:49.533Z,1108
2018-07-05T04:06:51.152Z,1168
2018-07-05T04:07:52.776Z,1224
2018-07-05T04:08:54.400Z,1264
2018-07-05T04:09:56.023Z,1308
2018-07-05T04:10:57.647Z,1360
2018-07-05T04:11:59.264Z,1420
2018-07-05T04:13:00.890Z,1456
2018-07-05T04:14:02.509Z,1488
2018-07-05T04:15:04.130Z,1536
2018-07-05T04:16:05.759Z,1580
2018-07-05T04:17:07.383Z,1632
2018-07-05T04:18:09.011Z,1700
2018-07-05T04:19:11.304Z,1756
2018-07-05T04:20:12.922Z,1812
2018-07-05T04:21:14.542Z,1856
2018-07-05T04:22:16.169Z,1892
2018-07-05T04:23:17.780Z,1924
2018-07-05T04:24:19.411Z,1936
2018-07-05T04:25:21.033Z,1944
2018-07-05T04:26:22.656Z,1956
2018-07-05T04:27:24.277Z,1968
2018-07-05T04:28:25.903Z,1972
2018-07-05T04:29:27.526Z,1972
2018-07-05T04:30:29.153Z,2000
2018-07-05T04:31:30.775Z,2028
2018-07-05T04:32:32.403Z,2044
2018-07-05T04:33:34.072Z,2048
2018-07-05T04:34:35.691Z,2048
2018-07-05T04:35:37.317Z,2048
2018-07-05T04:36:38.941Z,2060
2018-07-05T04:37:40.560Z,2068
2018-07-05T04:38:42.186Z,2076
2018-07-05T04:39:43.807Z,2080
2018-07-05T04:40:45.430Z,2048
2018-07-05T04:41:47.049Z,2028
2018-07-05T04:42:48.678Z,2000
2018-07-05T04:43:50.293Z,1996
2018-07-05T04:44:51.925Z,2008
2018-07-05T04:45:53.539Z,2036
2018-07-05T04:46:55.166Z,2080
2018-07-05T04:47:56.856Z,2152
2018-07-05T04:48:58.413Z,2260
2018-07-05T04:50:00.048Z,2420
2018-07-05T04:51:01.654Z,2612
2018-07-05T04:52:04.093Z,2824
2018-07-05T04:53:05.712Z,2992
2018-07-05T04:54:07.347Z,3012
2018-07-05T04:55:08.960Z,2968
2018-07-05T04:56:10.583Z,2932
2018-07-05T04:57:12.244Z,2912
2018-07-05T04:58:13.875Z,2932
2018-07-05T04:59:15.492Z,3008
2018-07-05T05:00:17.114Z,3104
2018-07-05T05:01:18.739Z,3208
2018-07-05T05:02:20.405Z,3300
2018-07-05T05:03:21.986Z,3380
2018-07-05T05:04:23.608Z,3472
2018-07-05T05:05:25.231Z,3592
2018-07-05T05:06:26.854Z,3736
2018-07-05T05:07:28.481Z,3912
2018-07-05T05:08:30.106Z,4148
2018-07-05T05:09:32.592Z,4408
2018-07-05T05:10:34.214Z,4656
2018-07-05T05:11:35.841Z,4876
2018-07-05T05:12:37.462Z,5072
2018-07-05T05:13:39.090Z,5280
2018-07-05T05:14:40.714Z,5560
2018-07-05T05:15:42.335Z,5988
2018-07-05T05:16:43.955Z,6488
2018-07-05T05:17:45.579Z,6720
2018-07-05T05:18:47.200Z,6676
2018-07-05T05:19:48.827Z,6268
2018-07-05T05:20:50.448Z,5564
2018-07-05T05:21:52.072Z,4876
2018-07-05T05:22:53.695Z,3748
2018-07-05T05:23:55.314Z,3256
2018-07-05T05:24:56.944Z,2932
2018-07-05T05:25:58.563Z,2868
2018-07-05T05:27:00.192Z,3048
2018-07-05T05:28:01.812Z,3392
2018-07-05T05:29:03.432Z,3664
2018-07-05T05:30:05.123Z,3804
2018-07-05T05:31:06.679Z,3872
2018-07-05T05:32:08.306Z,3868
2018-07-05T05:33:09.933Z,3816
2018-07-05T05:34:11.556Z,3880
2018-07-05T05:35:13.182Z,4088
2018-07-05T05:36:14.804Z,4424
2018-07-05T05:37:16.435Z,4872
2018-07-05T05:38:18.055Z,5080
2018-07-05T05:39:19.681Z,5128
2018-07-05T05:40:25.765Z,5140
2018-07-05T05:41:31.578Z,5140
2018-07-05T05:42:37.199Z,5228
2018-07-05T05:43:39.073Z,5428
2018-07-05T05:44:40.708Z,5656
2018-07-05T05:45:43.192Z,5776
2018-07-05T05:46:44.813Z,5680
2018-07-05T05:47:46.468Z,5452
2018-07-05T05:48:48.062Z,5160
2018-07-05T05:49:49.684Z,4920
2018-07-05T05:50:51.308Z,4748
2018-07-05T05:51:52.932Z,4628
2018-07-05T05:52:54.558Z,4556
2018-07-05T05:53:56.183Z,4500
2018-07-05T05:54:57.815Z,4516
2018-07-05T05:55:59.479Z,4548
2018-07-05T05:57:01.104Z,4580
2018-07-05T05:58:02.738Z,4648
2018-07-05T05:59:04.368Z,4780
2018-07-05T06:00:05.991Z,4944
2018-07-05T06:01:07.613Z,5124
2018-07-05T06:02:09.236Z,5248
2018-07-05T06:03:10.866Z,5324
2018-07-05T06:04:12.495Z,5384
2018-07-05T06:05:14.119Z,5524
2018-07-05T06:06:15.751Z,5644
2018-07-05T06:07:17.978Z,5792
2018-07-05T06:08:19.598Z,5888
2018-07-05T06:09:21.230Z,6100
2018-07-05T06:10:22.851Z,6424
2018-07-05T06:11:24.478Z,6880
2018-07-05T06:12:26.100Z,7356
2018-07-05T06:13:27.730Z,7748
2018-07-05T06:14:29.360Z,8156
2018-07-05T06:15:30.978Z,8408
2018-07-05T06:16:32.606Z,8388
2018-07-05T06:17:34.222Z,8396
2018-07-05T06:18:35.873Z,8568
2018-07-05T06:19:37.484Z,8796
2018-07-05T06:20:39.098Z,9564
2018-07-05T06:21:40.721Z,9772
2018-07-05T06:22:42.350Z,10176
2018-07-05T06:23:43.976Z,9836
2018-07-05T06:24:45.603Z,9236
2018-07-05T06:25:47.229Z,8804
2018-07-05T06:26:48.849Z,8332
2018-07-05T06:27:50.477Z,7504
2018-07-05T06:28:52.103Z,6468
2018-07-05T06:29:53.721Z,5380
2018-07-05T06:30:55.345Z,4352
2018-07-05T06:31:56.969Z,3556
2018-07-05T06:32:58.598Z,2868
2018-07-05T06:34:00.243Z,2340
2018-07-05T06:35:01.857Z,1972
2018-07-05T06:36:03.477Z,1724
2018-07-05T06:37:05.097Z,1204
2018-07-05T06:38:06.719Z,1340
2018-07-05T06:39:08.341Z,1156
2018-07-05T06:40:09.964Z,996
2018-07-05T06:41:11.585Z,868
2018-07-05T06:42:13.212Z,796
2018-07-05T06:43:14.837Z,768
2018-07-05T06:44:16.452Z,800
2018-07-05T06:45:18.076Z,888
2018-07-05T06:46:19.704Z,1012
2018-07-05T06:47:21.380Z,1164
2018-07-05T06:48:22.953Z,1320
2018-07-05T06:49:24.581Z,1448
2018-07-05T06:50:26.201Z,1552
2018-07-05T06:51:27.827Z,1612
2018-07-05T06:52:29.450Z,1620
2018-07-05T06:53:31.068Z,1596
2018-07-05T06:54:32.702Z,1560
2018-07-05T06:55:34.334Z,1512
2018-07-05T06:56:35.963Z,1464
2018-07-05T06:57:37.585Z,1412
2018-07-05T06:58:39.203Z,1376
2018-07-05T06:59:40.825Z,1344
2018-07-05T07:00:42.453Z,1312
2018-07-05T07:01:44.076Z,1280
2018-07-05T07:02:45.708Z,1244
2018-07-05T07:03:47.327Z,1216
2018-07-05T07:04:48.954Z,1212
2018-07-05T07:05:50.580Z,1220
2018-07-05T07:06:52.206Z,1260
2018-07-05T07:07:53.827Z,1312
2018-07-05T07:08:55.456Z,1368
2018-07-05T07:09:57.084Z,1416
2018-07-05T07:10:58.707Z,1460
2018-07-05T07:12:00.326Z,1508
2018-07-05T07:13:01.951Z,1552
2018-07-05T07:14:03.579Z,1596
2018-07-05T07:15:05.200Z,1652
2018-07-05T07:16:06.930Z,1708
2018-07-05T07:17:08.453Z,1780
2018-07-05T07:18:10.085Z,1860
2018-07-05T07:19:11.699Z,1940
2018-07-05T07:20:13.329Z,2028
2018-07-05T07:21:14.947Z,2132
2018-07-05T07:22:16.578Z,2236
2018-07-05T07:23:18.199Z,2308
2018-07-05T07:24:19.825Z,2364
2018-07-05T07:25:21.451Z,2408
2018-07-05T07:26:23.079Z,2444
2018-07-05T07:27:24.699Z,2464
2018-07-05T07:28:26.325Z,2476
2018-07-05T07:29:27.950Z,2468
2018-07-05T07:30:30.350Z,2460
2018-07-05T07:31:31.997Z,2448
2018-07-05T07:32:33.603Z,2444
2018-07-05T07:33:35.223Z,2456
2018-07-05T07:34:36.847Z,2484
2018-07-05T07:35:38.474Z,2544
2018-07-05T07:36:40.100Z,2636
2018-07-05T07:37:41.733Z,2744
2018-07-05T07:38:43.357Z,2860
2018-07-05T07:39:44.981Z,2980
2018-07-05T07:40:46.607Z,3084
2018-07-05T07:41:48.227Z,3184
2018-07-05T07:42:49.856Z,3284
2018-07-05T07:43:51.476Z,3396
2018-07-05T07:44:53.102Z,3512
2018-07-05T07:45:54.730Z,3632
2018-07-05T07:46:56.354Z,3772
2018-07-05T07:47:57.980Z,3928
2018-07-05T07:48:59.606Z,4092
2018-07-05T07:50:01.226Z,4268
2018-07-05T07:51:02.853Z,4428
2018-07-05T07:52:04.475Z,4608
2018-07-05T07:53:06.107Z,4816
2018-07-05T07:54:07.726Z,5016
2018-07-05T07:55:09.351Z,5232
2018-07-05T07:56:10.977Z,5440
2018-07-05T07:57:12.600Z,5592
2018-07-05T07:58:14.245Z,5736
2018-07-05T07:59:15.852Z,5936
2018-07-05T08:00:17.475Z,6188
2018-07-05T08:01:19.102Z,6464
2018-07-05T08:02:20.732Z,6764
2018-07-05T08:03:22.352Z,7072
2018-07-05T08:04:23.981Z,7388
2018-07-05T08:05:25.609Z,7688
2018-07-05T08:06:27.231Z,8060
2018-07-05T08:07:28.853Z,8840
2018-07-05T08:08:30.486Z,10036
2018-07-05T08:09:32.109Z,11280
2018-07-05T08:10:33.733Z,11132
2018-07-05T08:11:35.360Z,11440
2018-07-05T08:12:36.984Z,13104
2018-07-05T08:13:38.613Z,13528
2018-07-05T08:14:40.244Z,15164
2018-07-05T08:15:41.877Z,27168
2018-07-05T08:16:43.505Z,17472
2018-07-05T08:17:45.125Z,10780
2018-07-05T08:18:46.751Z,9764
2018-07-05T08:19:48.378Z,9064
2018-07-05T08:20:49.998Z,8592
2018-07-05T08:21:51.624Z,8244
2018-07-05T08:22:53.255Z,8048
2018-07-05T08:23:54.881Z,7960
2018-07-05T08:24:56.502Z,7956
2018-07-05T08:25:58.128Z,8028
2018-07-05T08:26:59.754Z,8128
2018-07-05T08:28:01.376Z,8248
2018-07-05T08:29:03.004Z,8372
2018-07-05T08:30:04.627Z,8488
2018-07-05T08:31:06.255Z,8600
2018-07-05T08:32:07.875Z,8692
2018-07-05T08:33:09.503Z,8780
2018-07-05T08:34:11.127Z,8820
2018-07-05T08:35:12.754Z,8864
2018-07-05T08:36:14.378Z,8988
2018-07-05T08:37:16.059Z,9160
2018-07-05T08:38:17.629Z,9348
2018-07-05T08:39:19.257Z,9588
2018-07-05T08:40:20.877Z,9872
2018-07-05T08:41:22.509Z,10188
2018-07-05T08:42:24.136Z,10544
2018-07-05T08:43:25.764Z,10952
2018-07-05T08:44:27.394Z,11352
2018-07-05T08:45:29.017Z,11688
2018-07-05T08:46:30.650Z,11984
2018-07-05T08:47:32.275Z,12280
2018-07-05T08:48:33.905Z,12596
2018-07-05T08:49:35.529Z,12848
2018-07-05T08:50:37.176Z,13024
2018-07-05T08:51:38.789Z,13324
2018-07-05T08:52:40.412Z,13712
2018-07-05T08:53:42.045Z,15064
2018-07-05T08:54:43.670Z,15188
2018-07-05T08:55:45.306Z,15080
2018-07-05T08:56:46.931Z,15244
2018-07-05T08:57:48.557Z,15412
2018-07-05T08:58:50.193Z,15532
2018-07-05T08:59:51.814Z,15648
2018-07-05T09:00:53.442Z,15836
2018-07-05T09:01:55.070Z,16108
2018-07-05T09:02:56.695Z,16576
2018-07-05T09:03:58.327Z,17024
2018-07-05T09:04:59.961Z,17472
2018-07-05T09:06:01.588Z,18048
2018-07-05T09:07:03.219Z,18592
2018-07-05T09:08:04.862Z,19648
2018-07-05T09:09:06.501Z,19712
2018-07-05T09:10:08.120Z,20096
2018-07-05T09:11:09.745Z,20608
2018-07-05T09:12:11.381Z,20960
2018-07-05T09:13:13.009Z,20640
2018-07-05T09:14:14.637Z,21600
2018-07-05T09:15:16.271Z,22432
2018-07-05T09:16:17.894Z,23744
2018-07-05T09:17:19.533Z,23392
2018-07-05T09:18:21.188Z,25152
2018-07-05T09:19:22.787Z,27168
2018-07-05T09:20:24.418Z,28320
2018-07-05T09:21:26.044Z,38784
2018-07-05T09:22:27.674Z,51712
2018-07-05T09:23:29.399Z,69344
2018-07-05T09:24:30.930Z,88416
2018-07-05T09:25:32.557Z,84608
2018-07-05T09:26:34.196Z,60128
2018-07-05T09:27:35.824Z,66080
2018-07-05T09:28:37.457Z,73952
2018-07-05T09:29:39.086Z,70464
2018-07-05T09:30:40.727Z,68320
2018-07-05T09:31:42.354Z,38656
2018-07-05T09:32:43.992Z,71552
2018-07-05T09:33:45.623Z,76512
2018-07-05T09:34:47.263Z,63360
2018-07-05T09:35:48.892Z,65440
2018-07-05T09:36:50.533Z,50624
2018-07-05T09:37:52.178Z,47712
2018-07-05T09:38:53.817Z,41088
2018-07-05T09:39:55.456Z,40832
2018-07-05T09:40:57.091Z,40896
2018-07-05T09:41:58.732Z,41120
2018-07-05T09:43:00.359Z,30240
2018-07-05T09:44:02.005Z,23584
2018-07-05T09:45:03.637Z,24320
2018-07-05T09:46:05.276Z,22176
2018-07-05T09:47:06.958Z,19712
2018-07-05T09:48:08.550Z,17728
2018-07-05T09:49:10.188Z,16088
2018-07-05T09:50:11.822Z,14980
2018-07-05T09:51:13.459Z,14736
2018-07-05T09:52:15.106Z,15000
2018-07-05T09:53:16.728Z,15996
2018-07-05T09:54:18.367Z,18112
2018-07-05T09:55:19.996Z,19424
2018-07-05T09:56:21.630Z,19584
2018-07-05T09:57:23.268Z,20736
2018-07-05T09:58:24.896Z,20384
2018-07-05T09:59:26.533Z,22560
2018-07-05T10:00:28.167Z,23584
2018-07-05T10:01:29.804Z,23264
2018-07-05T10:02:31.434Z,21152
2018-07-05T10:03:33.150Z,19424
2018-07-05T10:04:34.709Z,20160
2018-07-05T10:05:36.338Z,19040
2018-07-05T10:06:37.967Z,19616
2018-07-05T10:07:39.605Z,17632
2018-07-05T10:08:41.237Z,17024
2018-07-05T10:09:42.869Z,15520
2018-07-05T10:10:44.501Z,16316
2018-07-05T10:11:46.136Z,17888
2018-07-05T10:12:47.765Z,17088
2018-07-05T10:13:49.703Z,17856
2018-07-05T10:14:51.032Z,19040
2018-07-05T10:15:52.668Z,19328
2018-07-05T10:16:54.296Z,21312
2018-07-05T10:17:55.936Z,33600
2018-07-05T10:18:57.561Z,45920
2018-07-05T10:19:59.196Z,43328
2018-07-05T10:21:01.476Z,31008
2018-07-05T10:22:03.104Z,47872
2018-07-05T10:23:04.739Z,48896
2018-07-05T10:24:06.372Z,57984
2018-07-05T10:25:08.013Z,54752
2018-07-05T10:26:09.641Z,46816
2018-07-05T10:27:11.278Z,31840
2018-07-05T10:28:12.907Z,47392
2018-07-05T10:29:14.539Z,55232
2018-07-05T10:30:16.177Z,43424
2018-07-05T10:31:17.817Z,46784
2018-07-05T10:32:19.444Z,55840
2018-07-05T10:33:21.078Z,58784
2018-07-05T10:34:22.710Z,62272
2018-07-05T10:35:24.343Z,62880
2018-07-05T10:36:25.983Z,65376
2018-07-05T10:37:27.615Z,66016
2018-07-05T10:38:29.260Z,64768
2018-07-05T10:39:30.906Z,63776
2018-07-05T10:40:32.531Z,62496
2018-07-05T10:41:34.161Z,63552
2018-07-05T10:42:35.802Z,64672
2018-07-05T10:43:37.437Z,62272
2018-07-05T10:44:39.078Z,57184
2018-07-05T10:45:40.713Z,54272
2018-07-05T10:46:42.354Z,66816
2018-07-05T10:47:43.993Z,67104
2018-07-05T10:48:45.625Z,67200
2018-07-05T10:49:47.263Z,68896
2018-07-05T10:50:48.902Z,69024
2018-07-05T10:51:50.539Z,68544
2018-07-05T10:52:52.183Z,65472
2018-07-05T10:53:53.826Z,56352
2018-07-05T10:54:55.457Z,58944
2018-07-05T10:55:57.093Z,49056
2018-07-05T10:56:58.735Z,60896
2018-07-05T10:58:00.378Z,50688
2018-07-05T10:59:02.012Z,53664
2018-07-05T11:00:03.651Z,49632
2018-07-05T11:01:05.308Z,47008
2018-07-05T11:02:06.923Z,39648
2018-07-05T11:03:08.566Z,34176
2018-07-05T11:04:10.201Z,38176
2018-07-05T11:05:12.572Z,41152
2018-07-05T11:06:14.205Z,45696
2018-07-05T11:07:15.849Z,42592
2018-07-05T11:08:17.486Z,44000
2018-07-05T11:09:19.127Z,44224
2018-07-05T11:10:20.762Z,37856
2018-07-05T11:11:22.401Z,50688
2018-07-05T11:12:24.037Z,54144
2018-07-05T11:13:26.008Z,52672
2018-07-05T11:14:27.701Z,39680
2018-07-05T11:15:29.284Z,39072
2018-07-05T11:16:30.922Z,43456
2018-07-05T11:17:32.560Z,43520
2018-07-05T11:18:34.191Z,45536
2018-07-05T11:19:35.834Z,43456
2018-07-05T11:20:37.471Z,43936
2018-07-05T11:21:39.113Z,42048
2018-07-05T11:22:40.746Z,43392
2018-07-05T11:23:42.386Z,49408
2018-07-05T11:24:44.022Z,52960
2018-07-05T11:25:45.662Z,38880
2018-07-05T11:26:47.298Z,43488
2018-07-05T11:27:48.939Z,43552
2018-07-05T11:28:50.580Z,41728
2018-07-05T11:29:52.218Z,43776
2018-07-05T11:30:53.854Z,38176
2018-07-05T11:31:55.495Z,33600
2018-07-05T11:32:57.129Z,35744
2018-07-05T11:33:58.771Z,37856
2018-07-05T11:35:00.412Z,42880
2018-07-05T11:36:02.059Z,40096
2018-07-05T11:37:03.697Z,32480
2018-07-05T11:38:05.329Z,30976
2018-07-05T11:39:06.970Z,35520
2018-07-05T11:40:08.610Z,31648
2018-07-05T11:41:10.243Z,33120
2018-07-05T11:42:11.885Z,33056
2018-07-05T11:43:13.520Z,38240
2018-07-05T11:44:15.168Z,36512
2018-07-05T11:45:16.808Z,47008
2018-07-05T11:46:18.434Z,41312
2018-07-05T11:47:20.068Z,48384
2018-07-05T11:48:21.713Z,48992
2018-07-05T11:49:23.348Z,46944
2018-07-05T11:50:24.983Z,39072
2018-07-05T11:51:26.624Z,39072
2018-07-05T11:52:28.261Z,36576
2018-07-05T11:53:29.899Z,37984
2018-07-05T11:54:31.532Z,38048
2018-07-05T11:55:33.164Z,36384
2018-07-05T11:56:34.806Z,31872
2018-07-05T11:57:36.437Z,30592
2018-07-05T11:58:38.117Z,27328
2018-07-05T11:59:39.708Z,22752
2018-07-05T12:00:41.351Z,20608
2018-07-05T12:01:42.988Z,26336
2018-07-05T12:02:44.631Z,19040
2018-07-05T12:03:46.258Z,17024
2018-07-05T12:04:47.900Z,17088
2018-07-05T12:05:49.535Z,16992
2018-07-05T12:06:51.565Z,16896
2018-07-05T12:07:53.194Z,17344
2018-07-05T12:08:54.836Z,19232
2018-07-05T12:09:56.470Z,17696
2018-07-05T12:10:58.107Z,18016
2018-07-05T12:11:59.744Z,18976
2018-07-05T12:13:01.383Z,20704
2018-07-05T12:14:03.009Z,23552
2018-07-05T12:15:04.649Z,32672
2018-07-05T12:16:06.284Z,30368
2018-07-05T12:17:07.916Z,32320
2018-07-05T12:18:09.546Z,30848
2018-07-05T12:19:11.185Z,30048
2018-07-05T12:20:12.842Z,32480
2018-07-05T12:21:14.448Z,34720
2018-07-05T12:22:16.127Z,37120
2018-07-05T12:23:17.713Z,30944
2018-07-05T12:24:19.359Z,26368
2018-07-05T12:25:20.979Z,23520
2018-07-05T12:26:22.624Z,22176
2018-07-05T12:27:24.259Z,22848
2018-07-05T12:28:25.884Z,23360
2018-07-05T12:29:27.631Z,21952
2018-07-05T12:30:29.148Z,21440
2018-07-05T12:31:30.785Z,24032
2018-07-05T12:32:32.420Z,25760
2018-07-05T12:33:34.096Z,27936
2018-07-05T12:34:35.686Z,31264
2018-07-05T12:35:37.323Z,32064
2018-07-05T12:36:38.959Z,35040
2018-07-05T12:37:40.586Z,38432
2018-07-05T12:38:42.219Z,32192
2018-07-05T12:39:43.858Z,28384
2018-07-05T12:40:45.492Z,27488
2018-07-05T12:41:47.123Z,31200
2018-07-05T12:42:48.760Z,36192
2018-07-05T12:43:50.395Z,28000
2018-07-05T12:44:52.037Z,28480
2018-07-05T12:45:53.669Z,35456
2018-07-05T12:46:55.308Z,31552
2018-07-05T12:47:56.938Z,30400
2018-07-05T12:48:58.576Z,32064
2018-07-05T12:50:00.212Z,34304
2018-07-05T12:51:01.840Z,29056
2018-07-05T12:52:03.469Z,31456
2018-07-05T12:53:05.101Z,37568
2018-07-05T12:54:06.738Z,32064
2018-07-05T12:55:08.371Z,30880
2018-07-05T12:56:10.013Z,30336
2018-07-05T12:57:11.646Z,28736
2018-07-05T12:58:13.275Z,29728
2018-07-05T12:59:14.914Z,32384
2018-07-05T13:00:16.551Z,37184
2018-07-05T13:01:18.190Z,41600
2018-07-05T13:02:19.823Z,46080
2018-07-05T13:03:21.459Z,48192
2018-07-05T13:04:23.103Z,40896
2018-07-05T13:05:24.726Z,44000
2018-07-05T13:06:26.355Z,36896
2018-07-05T13:07:27.990Z,40544
2018-07-05T13:08:29.629Z,38208
2018-07-05T13:09:31.262Z,35424
2018-07-05T13:10:32.902Z,33344
2018-07-05T13:11:34.542Z,33536
2018-07-05T13:12:36.169Z,28576
2018-07-05T13:13:37.799Z,28992
2018-07-05T13:14:39.435Z,29280
2018-07-05T13:15:41.074Z,26592
2018-07-05T13:16:42.712Z,23296
2018-07-05T13:17:44.350Z,20512
2018-07-05T13:18:45.984Z,18624
2018-07-05T13:19:47.616Z,17248
2018-07-05T13:20:49.253Z,16400
2018-07-05T13:21:50.889Z,16108
2018-07-05T13:22:52.518Z,15996
2018-07-05T13:23:54.158Z,15776
2018-07-05T13:24:55.787Z,15160
2018-07-05T13:25:57.421Z,14296
2018-07-05T13:26:59.050Z,13428
2018-07-05T13:28:00.687Z,12528
2018-07-05T13:29:02.319Z,11880
2018-07-05T13:30:03.956Z,11504
2018-07-05T13:31:05.584Z,11216
2018-07-05T13:32:07.223Z,10948
2018-07-05T13:33:08.889Z,10820
2018-07-05T13:34:11.082Z,10848
2018-07-05T13:35:12.711Z,10880
2018-07-05T13:36:14.340Z,10732
2018-07-05T13:37:15.976Z,10532
2018-07-05T13:38:17.606Z,10304
2018-07-05T13:39:19.246Z,10052
2018-07-05T13:40:20.877Z,9816
2018-07-05T13:41:22.498Z,9592
2018-07-05T13:42:24.130Z,9404
2018-07-05T13:43:25.763Z,9280
2018-07-05T13:44:27.397Z,9232
2018-07-05T13:45:29.177Z,9276
2018-07-05T13:46:30.651Z,9444
2018-07-05T13:47:32.274Z,9660
2018-07-05T13:48:33.928Z,9860
2018-07-05T13:49:35.538Z,10036
2018-07-05T13:50:37.816Z,10200
2018-07-05T13:51:39.440Z,10360